Time;durP1;ratioP1;P1;durP2;ratioP2;P2;SDS_P1;SDS_P2;PMS_P1;PMS_P2;Temp;Humidity;BMP_temperature;BMP_pressure;BME280_temperature;BME280_humidity;BME280_pressure;Samples;Min_cycle;Max_cycle;Signal;HPM_P1;HPM_P2
2023/12/05 00:00:23;;;;;;;0.20;0.20;;;;;;;2.76;72.88;102156.91;4795815;29;20041;-92
2023/12/05 00:02:49;;;;;;;0.20;0.20;;;;;;;2.78;72.37;102154.34;4810733;29;20038;-92
2023/12/05 00:05:14;;;;;;;0.20;0.20;;;;;;;2.62;72.72;102155.91;4810006;29;20091;-92
2023/12/05 00:07:42;;;;;;;0.10;0.10;;;;;;;2.70;72.84;102163.66;4795247;29;20049;-92
2023/12/05 00:10:09;;;;;;;0.20;0.20;;;;;;;2.65;72.58;102152.53;4795917;29;20037;-93
2023/12/05 00:12:35;;;;;;;0.10;0.10;;;;;;;2.71;72.29;102156.00;4795525;29;20049;-92
2023/12/05 00:15:00;;;;;;;0.20;0.20;;;;;;;2.67;72.74;102164.50;4810268;29;20505;-92
2023/12/05 00:17:26;;;;;;;0.13;0.13;;;;;;;2.73;72.47;102176.44;4810694;29;20041;-91
2023/12/05 00:19:51;;;;;;;0.20;0.20;;;;;;;2.66;72.80;102175.56;4794830;29;20030;-92
2023/12/05 00:22:17;;;;;;;0.10;0.10;;;;;;;2.71;73.04;102170.47;4794806;29;20045;-94
2023/12/05 00:24:43;;;;;;;0.10;0.10;;;;;;;2.78;72.75;102177.34;4809940;29;20063;-92
2023/12/05 00:27:08;;;;;;;0.20;0.20;;;;;;;2.82;71.90;102174.81;4795255;29;20030;-93
2023/12/05 00:29:34;;;;;;;0.10;0.10;;;;;;;2.82;72.29;102173.97;4798460;29;20045;-91
2023/12/05 00:31:59;;;;;;;0.20;0.20;;;;;;;2.79;72.04;102173.97;4813482;29;20030;-94
2023/12/05 00:34:25;;;;;;;0.10;0.10;;;;;;;2.84;72.26;102179.94;4812794;29;20030;-94
2023/12/05 00:36:50;;;;;;;0.20;0.20;;;;;;;2.87;72.24;102174.88;4798167;29;20045;-91
2023/12/05 00:39:16;;;;;;;0.10;0.10;;;;;;;2.69;72.93;102170.47;4813238;29;20534;-91
2023/12/05 00:41:42;;;;;;;0.20;0.20;;;;;;;2.60;73.52;102162.72;4810147;29;20054;-93
2023/12/05 00:44:07;;;;;;;0.20;0.20;;;;;;;2.55;73.91;102149.91;4810396;29;20038;-92
2023/12/05 00:46:33;;;;;;;0.10;0.10;;;;;;;2.66;73.37;102154.28;4810393;29;20041;-92
2023/12/05 00:48:58;;;;;;;0.10;0.10;;;;;;;2.49;74.17;102126.00;4809983;29;20046;-93
2023/12/05 00:51:24;;;;;;;0.10;0.10;;;;;;;2.70;73.75;102136.41;4809911;29;20045;-93
2023/12/05 00:53:49;;;;;;;0.10;0.10;;;;;;;2.62;73.59;102134.63;4810025;29;20034;-93
2023/12/05 00:56:15;;;;;;;0.20;0.20;;;;;;;2.68;73.30;102119.34;4809860;29;20045;-90
2023/12/05 00:58:40;;;;;;;0.20;0.20;;;;;;;2.64;73.60;102122.72;4809988;29;20038;-91
2023/12/05 01:01:07;;;;;;;0.20;0.20;;;;;;;2.72;73.24;102126.19;4809919;29;20034;-92
2023/12/05 01:03:33;;;;;;;0.10;0.10;;;;;;;2.80;72.61;102114.31;4809641;29;20034;-91
2023/12/05 01:05:58;;;;;;;0.10;0.10;;;;;;;2.76;72.04;102103.22;4809652;29;20103;-91
2023/12/05 01:08:24;;;;;;;0.20;0.20;;;;;;;2.79;71.74;102093.03;4809545;29;20038;-93
2023/12/05 01:10:49;;;;;;;0.20;0.20;;;;;;;2.84;71.06;102096.44;4809681;29;20026;-92
2023/12/05 01:13:15;;;;;;;0.10;0.10;;;;;;;2.85;70.83;102107.53;4809984;29;20038;-92
2023/12/05 01:15:40;;;;;;;0.20;0.20;;;;;;;2.76;70.94;102117.72;4809784;29;20041;-92
2023/12/05 01:18:06;;;;;;;0.10;0.10;;;;;;;2.70;71.19;102103.19;4809707;29;20035;-93
2023/12/05 01:20:31;;;;;;;0.10;0.10;;;;;;;2.71;71.28;102109.16;4824814;29;20030;-92
2023/12/05 01:22:57;;;;;;;0.20;0.20;;;;;;;2.75;71.12;102098.09;4794300;29;20037;-93
2023/12/05 01:25:23;;;;;;;0.20;0.20;;;;;;;2.66;70.93;102078.47;4809033;29;20062;-93
2023/12/05 01:27:48;;;;;;;0.10;0.10;;;;;;;2.65;70.87;102088.66;4824575;29;20026;-93
2023/12/05 01:30:14;;;;;;;0.20;0.20;;;;;;;2.44;70.93;102069.75;4809762;29;20490;-92
2023/12/05 01:32:40;;;;;;;0.20;0.20;;;;;;;2.59;71.18;102085.22;4809367;29;20508;-93
2023/12/05 01:35:05;;;;;;;0.20;0.20;;;;;;;2.57;70.85;102092.03;4808973;29;20087;-94
2023/12/05 01:37:31;;;;;;;0.20;0.20;;;;;;;2.58;70.74;102088.63;4793960;29;20429;-90
2023/12/05 01:39:56;;;;;;;0.20;0.20;;;;;;;2.55;71.34;102082.63;4808166;29;20038;-93
2023/12/05 01:42:22;;;;;;;0.10;0.10;;;;;;;2.54;71.47;102069.00;4808980;29;20058;-92
2023/12/05 01:44:47;;;;;;;0.10;0.10;;;;;;;2.61;71.18;102067.34;4809178;29;20335;-91
2023/12/05 01:47:13;;;;;;;0.20;0.20;;;;;;;2.62;71.48;102076.72;4808823;29;20118;-92
2023/12/05 01:49:40;;;;;;;0.20;0.20;;;;;;;2.65;71.42;102078.44;4794382;29;20035;-92
2023/12/05 01:52:06;;;;;;;0.20;0.20;;;;;;;2.64;71.36;102066.50;4824381;29;20038;-92
2023/12/05 01:54:32;;;;;;;0.20;0.20;;;;;;;2.59;71.21;102069.88;4809202;29;20083;-92
2023/12/05 01:56:58;;;;;;;0.20;0.20;;;;;;;2.64;71.05;102057.13;4809265;29;20026;-91
2023/12/05 01:59:23;;;;;;;0.20;0.20;;;;;;;2.72;70.88;102057.19;4808893;29;20053;-91
2023/12/05 02:01:49;;;;;;;0.20;0.20;;;;;;;2.63;70.90;102062.25;4808635;29;20129;-93
2023/12/05 02:04:15;;;;;;;0.20;0.20;;;;;;;2.67;70.59;102064.00;4794033;29;20039;-92
2023/12/05 02:06:41;;;;;;;0.20;0.20;;;;;;;2.64;70.51;102062.25;4793757;29;20042;-92
2023/12/05 02:09:08;;;;;;;0.10;0.10;;;;;;;2.64;70.83;102058.84;4808615;29;20083;-92
2023/12/05 02:11:34;;;;;;;0.20;0.20;;;;;;;2.70;70.10;102046.97;4793998;29;20522;-91
2023/12/05 02:13:59;;;;;;;0.20;0.20;;;;;;;2.69;70.38;102055.47;4793542;29;20038;-92
2023/12/05 02:16:43;;;;;;;0.20;0.20;;;;;;;2.65;70.32;102063.94;4808164;29;20054;-91
2023/12/05 02:19:31;;;;;;;0.20;0.20;;;;;;;2.52;70.99;102062.16;4793256;29;20590;-92
2023/12/05 02:21:56;;;;;;;0.10;0.10;;;;;;;2.49;70.92;102047.69;4824337;29;20037;-92
2023/12/05 02:24:46;;;;;;;0.20;0.20;;;;;;;2.43;70.76;102032.31;4808043;29;20031;-91
2023/12/05 02:27:17;;;;;;;0.20;0.20;;;;;;;2.66;70.58;102052.91;4823605;29;20459;-93
2023/12/05 02:29:51;;;;;;;0.20;0.20;;;;;;;2.65;70.85;102042.66;4823277;29;20467;-93
2023/12/05 02:32:17;;;;;;;0.20;0.20;;;;;;;2.66;70.42;102047.81;4823513;29;20070;-92
2023/12/05 02:34:43;;;;;;;0.20;0.20;;;;;;;2.74;70.38;102047.81;4793572;29;20034;-93
2023/12/05 02:37:16;;;;;;;0.20;0.20;;;;;;;2.76;70.79;102046.16;4793247;29;20054;-90
2023/12/05 02:40:02;;;;;;;;;;;;;;;2.78;70.42;102052.13;4824113;29;21004;-91
2023/12/05 02:42:27;;;;;;;0.10;0.10;;;;;;;2.61;70.79;102043.50;4824973;29;19921;-91
2023/12/05 02:44:53;;;;;;;0.20;0.20;;;;;;;2.64;70.60;102043.50;4792996;29;20836;-93
2023/12/05 02:47:20;;;;;;;0.20;0.20;;;;;;;2.67;70.15;102043.53;4808301;29;20485;-94
2023/12/05 02:49:45;;;;;;;0.20;0.20;;;;;;;2.73;70.00;102030.78;4808333;29;20038;-90
2023/12/05 02:52:11;;;;;;;0.10;0.10;;;;;;;2.77;69.81;102032.53;4792981;29;20044;-90
2023/12/05 02:54:37;;;;;;;0.20;0.20;;;;;;;2.72;69.99;102032.50;4808022;29;20065;-93
2023/12/05 02:57:02;;;;;;;0.20;0.20;;;;;;;2.70;69.93;102000.13;4792858;29;20038;-91
2023/12/05 02:59:28;;;;;;;0.20;0.20;;;;;;;2.81;69.40;102018.91;4807116;29;20063;-92
2023/12/05 03:01:53;;;;;;;0.20;0.20;;;;;;;2.81;69.88;102024.03;4792626;29;20034;-92
2023/12/05 03:04:19;;;;;;;0.20;0.20;;;;;;;2.82;69.84;102033.41;4807919;29;20046;-92
2023/12/05 03:06:44;;;;;;;0.10;0.10;;;;;;;2.91;69.07;102056.44;4822884;29;20034;-91
2023/12/05 03:09:10;;;;;;;0.20;0.20;;;;;;;2.67;69.68;102053.75;4807704;29;20038;-93
2023/12/05 03:11:36;;;;;;;0.20;0.20;;;;;;;2.64;69.70;102051.16;4807704;29;20113;-91
2023/12/05 03:14:02;;;;;;;0.10;0.10;;;;;;;2.63;70.08;102044.34;4807591;29;20034;-92
2023/12/05 03:16:28;;;;;;;0.20;0.20;;;;;;;2.62;69.96;102055.41;4807748;29;20034;-90
2023/12/05 03:18:54;;;;;;;0.10;0.10;;;;;;;2.68;70.11;102047.81;4792474;29;20493;-92
2023/12/05 03:21:20;;;;;;;0.20;0.20;;;;;;;2.69;70.23;102040.16;4808075;29;20038;-91
2023/12/05 03:23:45;;;;;;;0.10;0.10;;;;;;;2.71;70.06;102032.47;4807501;29;20030;-92
2023/12/05 03:26:18;;;;;;;0.20;0.20;;;;;;;2.77;70.01;102040.19;4807249;29;20042;-92
2023/12/05 03:28:44;;;;;;;0.20;0.20;;;;;;;2.60;70.03;102029.88;4807340;29;20066;-91
2023/12/05 03:31:09;;;;;;;0.20;0.20;;;;;;;2.65;69.99;102022.22;4807225;29;20065;-92
2023/12/05 03:33:38;;;;;;;0.20;0.20;;;;;;;2.73;69.83;102011.19;4792592;29;20034;-92
2023/12/05 03:36:04;;;;;;;0.20;0.20;;;;;;;2.79;69.79;102007.81;4807437;29;20413;-91
2023/12/05 03:38:30;;;;;;;0.20;0.20;;;;;;;2.74;70.18;102005.22;4792420;29;20037;-91
2023/12/05 03:40:56;;;;;;;0.20;0.20;;;;;;;2.83;69.54;101986.53;4824217;29;20035;-92
2023/12/05 03:43:22;;;;;;;0.20;0.20;;;;;;;2.84;69.22;101986.53;4809915;29;20038;-92
2023/12/05 03:45:47;;;;;;;0.20;0.20;;;;;;;2.76;69.37;102001.00;4794911;29;20077;-91
2023/12/05 03:48:13;;;;;;;0.20;0.20;;;;;;;2.70;69.47;102016.31;4810546;29;20036;-93
2023/12/05 03:50:39;;;;;;;0.20;0.20;;;;;;;2.68;69.26;102006.91;4825687;29;20098;-92
2023/12/05 03:53:04;;;;;;;0.10;0.10;;;;;;;2.67;69.59;102010.31;4809772;29;20108;-91
2023/12/05 03:55:33;;;;;;;0.10;0.10;;;;;;;2.72;69.28;102018.84;4810087;29;20042;-92
2023/12/05 03:57:59;;;;;;;0.20;0.20;;;;;;;2.69;69.52;102003.53;4809739;29;20077;-91
2023/12/05 04:00:25;;;;;;;0.20;0.20;;;;;;;2.69;69.36;102021.41;4810227;29;20062;-92
2023/12/05 04:02:50;;;;;;;0.20;0.20;;;;;;;2.70;69.15;102016.31;4811323;29;20041;-92
2023/12/05 04:05:16;;;;;;;0.20;0.20;;;;;;;2.64;69.21;102006.03;4816109;29;20068;-92
2023/12/05 04:07:41;;;;;;;0.20;0.20;;;;;;;2.67;69.00;101995.00;4799066;29;20038;-92
2023/12/05 04:10:09;;;;;;;0.20;0.20;;;;;;;2.59;69.12;102007.72;4798055;29;20037;-92
2023/12/05 04:12:34;;;;;;;0.20;0.20;;;;;;;2.56;69.09;102023.03;4814966;29;20065;-91
2023/12/05 04:15:00;;;;;;;0.20;0.20;;;;;;;2.45;69.03;101994.84;4819505;29;20075;-90
2023/12/05 04:17:25;;;;;;;0.10;0.10;;;;;;;2.49;68.88;101996.59;4828003;29;20431;-90
2023/12/05 04:19:51;;;;;;;0.20;0.20;;;;;;;2.46;68.78;101996.59;4827923;29;20042;-89
2023/12/05 04:22:16;;;;;;;0.20;0.20;;;;;;;2.50;69.25;101993.19;4797730;29;20477;-89
2023/12/05 04:24:42;;;;;;;0.20;0.20;;;;;;;2.30;69.41;101975.19;4812427;29;20513;-89
2023/12/05 04:27:08;;;;;;;0.10;0.10;;;;;;;2.42;69.51;101991.44;4827425;29;20510;-89
2023/12/05 04:29:33;;;;;;;0.10;0.10;;;;;;;2.33;69.97;101993.91;4812745;29;20034;-90
2023/12/05 04:32:01;;;;;;;0.17;0.17;;;;;;;2.46;69.79;101988.03;4827645;29;20132;-90
2023/12/05 04:34:27;;;;;;;0.10;0.10;;;;;;;2.52;69.58;101970.19;4813073;29;20034;-89
2023/12/05 04:36:52;;;;;;;0.20;0.20;;;;;;;2.46;69.57;101971.03;4797520;29;20034;-89
2023/12/05 04:39:18;;;;;;;0.10;0.10;;;;;;;2.53;69.43;101962.53;4812323;29;20034;-90
2023/12/05 04:41:44;;;;;;;0.10;0.10;;;;;;;2.51;69.77;101959.13;4811776;29;20053;-90
2023/12/05 04:44:09;;;;;;;0.10;0.10;;;;;;;2.27;70.41;101959.84;4812661;29;20054;-90
2023/12/05 04:46:38;;;;;;;0.10;0.10;;;;;;;2.34;70.55;101960.72;4795233;29;20044;-87
2023/12/05 04:49:05;;;;;;;0.20;0.20;;;;;;;2.37;70.26;101965.03;4826437;29;20406;-87
2023/12/05 04:51:30;;;;;;;0.10;0.10;;;;;;;2.36;70.79;101969.28;4826056;29;20037;-89
2023/12/05 04:53:56;;;;;;;0.10;0.10;;;;;;;2.42;70.62;101978.66;4826251;29;20030;-89
2023/12/05 04:56:22;;;;;;;0.10;0.10;;;;;;;2.41;70.79;101975.25;4826240;29;20049;-88
2023/12/05 04:58:48;;;;;;;0.20;0.20;;;;;;;2.33;70.95;101976.88;4826039;29;20037;-89
2023/12/05 05:01:14;;;;;;;0.10;0.10;;;;;;;2.29;70.55;101954.75;4826044;29;20030;-86
2023/12/05 05:03:39;;;;;;;0.20;0.20;;;;;;;2.29;70.52;101963.25;4824825;29;20037;-86
2023/12/05 05:06:05;;;;;;;0.20;0.20;;;;;;;2.39;70.64;101979.50;4809356;29;20026;-86
2023/12/05 05:08:30;;;;;;;0.20;0.20;;;;;;;2.26;70.04;101947.03;4828064;29;20034;-85
2023/12/05 05:10:56;;;;;;;0.20;0.20;;;;;;;2.44;70.29;101982.91;4831590;29;20037;-89
2023/12/05 05:13:21;;;;;;;0.20;0.20;;;;;;;2.44;70.35;101977.81;4828421;29;20044;-93
2023/12/05 05:15:47;;;;;;;0.20;0.20;;;;;;;2.41;70.04;101971.84;4861147;29;20030;-89
2023/12/05 05:18:12;;;;;;;0.20;0.20;;;;;;;2.30;70.36;101959.00;4844554;29;20036;-87
2023/12/05 05:20:38;;;;;;;0.20;0.20;;;;;;;2.37;70.84;101972.69;4844485;29;20041;-87
2023/12/05 05:23:03;;;;;;;0.20;0.20;;;;;;;2.39;70.70;101973.53;4841236;29;20037;-90
2023/12/05 05:25:30;;;;;;;0.10;0.10;;;;;;;2.29;70.74;101958.16;4842352;29;20049;-88
2023/12/05 05:27:55;;;;;;;0.20;0.20;;;;;;;2.33;70.75;101955.59;4844345;29;20034;-89
2023/12/05 05:30:21;;;;;;;0.10;0.10;;;;;;;2.41;70.57;101966.72;4860032;29;20131;-90
2023/12/05 05:32:46;;;;;;;0.20;0.20;;;;;;;2.40;70.67;101971.00;4834202;29;20508;-92
2023/12/05 05:35:12;;;;;;;0.20;0.20;;;;;;;2.46;70.84;101970.16;4824890;29;20046;-86
2023/12/05 05:37:38;;;;;;;0.20;0.20;;;;;;;2.44;70.86;101962.50;4806566;29;20061;-85
2023/12/05 05:40:03;;;;;;;0.20;0.20;;;;;;;2.48;70.44;101964.22;4820113;29;20037;-90
2023/12/05 05:42:29;;;;;;;0.20;0.20;;;;;;;2.63;70.60;101965.16;4810652;29;20440;-89
2023/12/05 05:44:55;;;;;;;0.20;0.20;;;;;;;2.66;70.39;101957.53;4851420;29;20466;-88
2023/12/05 05:47:20;;;;;;;0.20;0.20;;;;;;;2.43;70.58;101932.69;4843752;29;20052;-89
2023/12/05 05:49:46;;;;;;;0.20;0.20;;;;;;;2.37;70.97;101925.00;4859548;29;20037;-84
2023/12/05 05:52:12;;;;;;;0.20;0.20;;;;;;;2.61;70.48;101951.50;4849793;29;20083;-94
2023/12/05 05:54:37;;;;;;;0.10;0.10;;;;;;;2.54;70.96;101943.81;4818307;29;20112;-86
2023/12/05 05:57:03;;;;;;;0.20;0.20;;;;;;;2.57;70.50;101953.22;4844642;29;20069;-86
2023/12/05 05:59:29;;;;;;;0.10;0.10;;;;;;;2.50;70.88;101959.97;4825995;29;20417;-89
2023/12/05 06:01:54;;;;;;;0.17;0.17;;;;;;;2.53;70.46;101962.53;4830241;29;20064;-85
2023/12/05 06:04:20;;;;;;;0.20;0.20;;;;;;;2.62;69.97;101950.66;4830314;29;20045;-84
2023/12/05 06:06:46;;;;;;;0.20;0.20;;;;;;;2.69;70.06;101960.06;4806339;29;20034;-84
2023/12/05 06:09:11;;;;;;;0.20;0.20;;;;;;;2.72;69.85;101957.53;4844184;29;20033;-88
2023/12/05 06:11:37;;;;;;;0.20;0.20;;;;;;;2.68;69.86;101950.72;4834069;29;20050;-92
2023/12/05 06:14:03;;;;;;;0.10;0.10;;;;;;;2.44;70.49;101931.84;4835263;29;20172;-85
2023/12/05 06:16:29;;;;;;;0.20;0.20;;;;;;;2.42;70.38;101933.53;4828387;29;20116;-87
2023/12/05 06:18:54;;;;;;;0.20;0.20;;;;;;;2.53;70.36;101926.78;4846750;29;20029;-87
2023/12/05 06:21:20;;;;;;;0.20;0.20;;;;;;;2.56;70.07;101925.97;4826498;29;20514;-87
2023/12/05 06:23:45;;;;;;;0.10;0.10;;;;;;;2.59;70.34;101939.59;4823576;29;20493;-89
2023/12/05 06:26:11;;;;;;;0.20;0.20;;;;;;;2.57;70.36;101948.97;4841311;29;20492;-85
2023/12/05 06:28:37;;;;;;;0.20;0.20;;;;;;;2.54;70.93;101946.38;4824766;29;20045;-90
2023/12/05 06:31:02;;;;;;;0.20;0.20;;;;;;;2.42;70.74;101923.31;4824892;29;20034;-89
2023/12/05 06:33:28;;;;;;;0.20;0.20;;;;;;;2.51;70.86;101913.16;4840039;29;20046;-85
2023/12/05 06:35:53;;;;;;;0.10;0.10;;;;;;;2.49;70.81;101914.84;4822497;29;20681;-85
2023/12/05 06:38:20;;;;;;;0.20;0.20;;;;;;;2.51;70.73;101912.28;4838163;29;20089;-86
2023/12/05 06:40:45;;;;;;;0.20;0.20;;;;;;;2.53;70.89;101944.66;4826533;29;20183;-87
2023/12/05 06:43:11;;;;;;;0.10;0.10;;;;;;;2.56;70.54;101954.91;4806495;29;20116;-86
2023/12/05 06:45:36;;;;;;;0.20;0.20;;;;;;;2.58;70.54;101957.47;4829611;29;20084;-86
2023/12/05 06:48:02;;;;;;;0.20;0.20;;;;;;;2.59;70.82;101943.84;4819083;29;20038;-92
2023/12/05 06:50:27;;;;;;;0.13;0.13;;;;;;;2.67;70.42;101954.13;4823305;29;20046;-89
2023/12/05 06:52:57;;;;;;;0.20;0.20;;;;;;;2.63;70.55;101954.94;4806705;29;20061;-91
2023/12/05 06:55:24;;;;;;;0.20;0.20;;;;;;;2.71;70.58;101955.81;4810326;29;20492;-89
2023/12/05 06:57:50;;;;;;;0.10;0.10;;;;;;;2.82;70.16;101959.28;4823569;29;20034;-92
2023/12/05 07:00:16;;;;;;;0.10;0.10;;;;;;;2.79;69.96;101964.38;4826089;29;20065;-90
2023/12/05 07:02:42;;;;;;;0.20;0.20;;;;;;;2.85;69.75;101970.38;4826069;29;20097;-89
2023/12/05 07:05:08;;;;;;;0.10;0.10;;;;;;;2.83;69.13;101976.31;4823934;29;20046;-89
2023/12/05 07:07:34;;;;;;;0.20;0.20;;;;;;;2.88;69.18;101987.44;4822935;29;20071;-86
2023/12/05 07:10:00;;;;;;;0.20;0.20;;;;;;;2.76;69.06;101979.72;4807240;29;20040;-89
2023/12/05 07:12:25;;;;;;;0.20;0.20;;;;;;;2.73;68.99;101974.56;4824110;29;20030;-86
2023/12/05 07:14:51;;;;;;;0.20;0.20;;;;;;;2.90;68.73;101978.06;4838441;29;20045;-86
2023/12/05 07:17:18;;;;;;;0.10;0.10;;;;;;;2.73;68.96;101954.97;4806993;29;20038;-85
2023/12/05 07:19:44;;;;;;;0.20;0.20;;;;;;;2.83;68.83;101977.16;4819489;29;20452;-86
2023/12/05 07:22:09;;;;;;;0.20;0.20;;;;;;;2.75;69.20;101965.19;4845064;29;20029;-84
2023/12/05 07:24:35;;;;;;;0.20;0.20;;;;;;;2.76;68.60;101974.59;4820073;29;20509;-83
2023/12/05 07:27:01;;;;;;;0.20;0.20;;;;;;;2.66;69.20;101966.03;4840691;29;20037;-87
2023/12/05 07:29:26;;;;;;;0.10;0.10;;;;;;;2.81;69.19;101973.75;4821720;29;20575;-86
2023/12/05 07:31:52;;;;;;;0.20;0.20;;;;;;;2.73;69.12;101957.53;4822611;29;20417;-87
2023/12/05 07:34:18;;;;;;;0.10;0.10;;;;;;;2.79;68.98;101969.50;4808850;29;20042;-87
2023/12/05 07:36:43;;;;;;;0.20;0.20;;;;;;;2.86;68.60;101971.25;4818198;29;20087;-86
2023/12/05 07:39:15;;;;;;;0.20;0.20;;;;;;;2.84;68.69;101967.78;4811532;29;20046;-87
2023/12/05 07:41:41;;;;;;;0.20;0.20;;;;;;;2.75;68.21;101942.19;4821727;29;20065;-84
2023/12/05 07:44:06;;;;;;;0.10;0.10;;;;;;;2.96;68.23;101972.97;4822528;29;20026;-87
2023/12/05 07:46:33;;;;;;;0.10;0.10;;;;;;;2.88;67.78;101959.31;4823088;29;20034;-86
2023/12/05 07:48:58;;;;;;;0.10;0.10;;;;;;;2.89;68.83;101955.91;4806279;29;20056;-89
2023/12/05 07:51:24;;;;;;;0.20;0.20;;;;;;;3.06;69.33;101951.72;4809121;29;20493;-90
2023/12/05 07:53:50;;;;;;;0.10;0.10;;;;;;;3.03;70.08;101950.81;4824554;29;20041;-92
2023/12/05 07:56:16;;;;;;;0.20;0.20;;;;;;;3.03;68.50;101956.78;4814087;29;20034;-90
2023/12/05 07:58:42;;;;;;;0.20;0.20;;;;;;;2.88;68.72;101954.19;4791089;29;20428;-84
2023/12/05 08:01:08;;;;;;;0.20;0.20;;;;;;;2.97;67.84;101961.91;4807517;29;20078;-87
2023/12/05 08:03:34;;;;;;;0.20;0.20;;;;;;;2.97;67.68;101953.38;4821787;29;20030;-92
2023/12/05 08:06:01;;;;;;;0.20;0.20;;;;;;;3.04;67.60;101957.66;4809890;29;20042;-89
2023/12/05 08:08:30;;;;;;;0.20;0.20;;;;;;;2.97;67.38;101951.69;4808060;29;20030;-87
2023/12/05 08:10:56;;;;;;;0.15;0.15;;;;;;;2.98;67.64;101945.72;4831735;29;20540;-90
2023/12/05 08:13:22;;;;;;;0.20;0.20;;;;;;;3.06;67.54;101959.38;4839372;29;20515;-88
2023/12/05 08:15:48;;;;;;;0.20;0.20;;;;;;;2.74;67.50;101925.16;4839250;29;20034;-86
2023/12/05 08:18:13;;;;;;;0.20;0.20;;;;;;;2.99;69.14;101951.69;4819630;29;20037;-84
2023/12/05 08:20:39;;;;;;;0.20;0.20;;;;;;;3.48;72.41;101951.81;4822796;29;20053;-84
2023/12/05 08:23:05;;;;;;;0.20;0.20;;;;;;;3.54;67.23;101950.13;4838485;29;20064;-86
2023/12/05 08:25:31;;;;;;;0.20;0.20;;;;;;;3.56;66.29;101942.44;4826257;29;20026;-92
2023/12/05 08:27:56;;;;;;;0.20;0.20;;;;;;;3.39;66.39;101953.50;4827343;29;20034;-89
2023/12/05 08:30:22;;;;;;;0.20;0.20;;;;;;;3.28;66.86;101936.41;4815241;29;20500;-89
2023/12/05 08:32:48;;;;;;;0.20;0.20;;;;;;;3.42;66.55;101942.41;4791678;29;20049;-86
2023/12/05 08:35:13;;;;;;;0.20;0.20;;;;;;;3.55;66.28;101951.81;4822752;29;20405;-84
2023/12/05 08:37:40;;;;;;;0.20;0.20;;;;;;;3.55;66.16;101930.50;4839158;29;20037;-91
2023/12/05 08:40:06;;;;;;;0.20;0.20;;;;;;;3.68;65.67;101938.19;4825608;29;20112;-91
2023/12/05 08:42:31;;;;;;;0.20;0.20;;;;;;;3.86;65.16;101928.78;4825556;29;20060;-91
2023/12/05 08:44:57;;;;;;;0.20;0.20;;;;;;;3.76;65.03;101942.44;4810336;29;20034;-84
2023/12/05 08:47:22;;;;;;;0.20;0.20;;;;;;;3.71;65.28;101939.88;4851467;29;20041;-90
2023/12/05 08:49:48;;;;;;;0.20;0.20;;;;;;;3.78;64.94;101936.47;4809967;29;20034;-90
2023/12/05 08:52:13;;;;;;;0.20;0.20;;;;;;;3.77;65.17;101939.03;4829893;29;20042;-89
2023/12/05 08:54:39;;;;;;;0.20;0.20;;;;;;;3.59;65.01;101904.03;4823581;29;20046;-86
2023/12/05 08:57:04;;;;;;;0.20;0.20;;;;;;;3.78;65.46;101941.59;4832631;29;20069;-87
2023/12/05 08:59:30;;;;;;;0.20;0.20;;;;;;;3.78;65.40;101938.19;4817237;29;20068;-86
2023/12/05 09:01:56;;;;;;;0.10;0.10;;;;;;;3.88;64.68;101934.75;4824973;29;20090;-85
2023/12/05 09:04:21;;;;;;;0.10;0.10;;;;;;;3.86;64.94;101918.56;4842788;29;20076;-91
2023/12/05 09:06:47;;;;;;;0.20;0.20;;;;;;;3.73;64.48;101917.69;4857398;29;20041;-92
2023/12/05 09:09:13;;;;;;;0.20;0.20;;;;;;;3.65;64.68;101935.63;4842356;29;20040;-89
2023/12/05 09:11:39;;;;;;;0.20;0.20;;;;;;;3.53;65.03;101925.34;4831149;29;20037;-89
2023/12/05 09:14:05;;;;;;;0.10;0.10;;;;;;;3.71;68.90;101929.63;4795782;29;20030;-86
2023/12/05 09:16:31;;;;;;;0.10;0.10;;;;;;;3.87;64.70;101921.09;4840550;29;20572;-86
2023/12/05 09:18:57;;;;;;;0.20;0.20;;;;;;;3.72;64.71;101910.84;4843207;29;20033;-83
2023/12/05 09:21:22;;;;;;;0.13;0.13;;;;;;;3.86;64.19;101903.19;4852927;29;20083;-90
2023/12/05 09:23:48;;;;;;;0.20;0.20;;;;;;;3.89;64.19;101910.84;4833412;29;20041;-92
2023/12/05 09:26:14;;;;;;;0.20;0.20;;;;;;;3.93;64.40;101908.31;4826839;29;20034;-90
2023/12/05 09:28:40;;;;;;;0.20;0.20;;;;;;;3.83;63.82;101892.94;4827475;29;20041;-88
2023/12/05 09:31:05;;;;;;;0.20;0.20;;;;;;;3.67;64.19;101887.84;4814313;29;20068;-86
2023/12/05 09:33:31;;;;;;;0.10;0.10;;;;;;;3.80;64.06;101893.81;4809459;29;20069;-90
2023/12/05 09:36:00;;;;;;;0.20;0.20;;;;;;;3.95;64.98;101888.69;4812285;29;20101;-87
2023/12/05 09:38:26;;;;;;;0.20;0.20;;;;;;;4.13;63.16;101877.56;4816643;29;20412;-87
2023/12/05 09:40:51;;;;;;;0.20;0.20;;;;;;;4.20;63.01;101857.88;4828058;29;20034;-86
2023/12/05 09:43:21;;;;;;;0.20;0.20;;;;;;;4.41;62.12;101862.06;4832770;29;20046;-87
2023/12/05 09:45:46;;;;;;;0.20;0.20;;;;;;;4.52;62.22;101857.75;4823949;29;20050;-87
2023/12/05 09:48:12;;;;;;;0.20;0.20;;;;;;;4.44;61.60;101847.56;4825257;29;20476;-87
2023/12/05 09:50:37;;;;;;;0.20;0.20;;;;;;;4.47;61.96;101851.81;4821534;29;20456;-93
2023/12/05 09:53:04;;;;;;;0.20;0.20;;;;;;;4.43;62.44;101834.75;4824377;29;20062;-87
2023/12/05 09:55:30;;;;;;;0.10;0.10;;;;;;;4.37;62.22;101840.75;4804947;29;20569;-90
2023/12/05 09:57:57;;;;;;;0.20;0.20;;;;;;;4.25;61.66;101840.78;4787586;29;20046;-84
2023/12/05 10:00:24;;;;;;;0.20;0.20;;;;;;;4.26;61.60;101822.00;4822304;29;20030;-90
2023/12/05 10:02:49;;;;;;;0.20;0.20;;;;;;;4.25;61.30;101810.91;4814731;29;20529;-91
2023/12/05 10:05:15;;;;;;;0.10;0.10;;;;;;;4.20;61.70;101812.63;4824212;29;20062;-84
2023/12/05 10:07:42;;;;;;;0.20;0.20;;;;;;;4.17;61.11;101794.72;4806503;29;20425;-85
2023/12/05 10:10:08;;;;;;;0.20;0.20;;;;;;;4.04;61.53;101767.47;4822895;29;20072;-81
2023/12/05 10:12:34;;;;;;;0.10;0.10;;;;;;;4.32;61.92;101789.50;4801695;29;20184;-84
2023/12/05 10:15:00;;;;;;;0.20;0.20;;;;;;;4.28;60.56;101771.59;4806887;29;20053;-86
2023/12/05 10:17:26;;;;;;;0.20;0.20;;;;;;;4.37;60.58;101784.38;4819216;29;20083;-83
2023/12/05 10:19:51;;;;;;;0.10;0.10;;;;;;;4.26;60.71;101781.88;4807458;29;20034;-83
2023/12/05 10:22:17;;;;;;;0.20;0.20;;;;;;;4.43;61.07;101788.63;4826609;29;20085;-83
2023/12/05 10:24:43;;;;;;;0.20;0.20;;;;;;;4.49;60.83;101788.59;4810005;29;20061;-90
2023/12/05 10:27:09;;;;;;;0.20;0.20;;;;;;;4.37;60.87;101789.50;4829821;29;20037;-86
2023/12/05 10:29:41;;;;;;;0.20;0.20;;;;;;;4.39;61.26;101766.44;4815141;29;20038;-88
2023/12/05 10:32:08;;;;;;;0.20;0.20;;;;;;;4.41;60.72;101770.69;4823633;29;20041;-91
2023/12/05 10:34:46;;;;;;;0.20;0.20;;;;;;;4.39;61.27;101771.56;4818865;29;20045;-85
2023/12/05 10:37:12;;;;;;;0.20;0.20;;;;;;;4.46;60.60;101773.22;4833242;29;20416;-84
2023/12/05 10:39:38;;;;;;;0.20;0.20;;;;;;;4.49;60.26;101774.06;4818956;29;20034;-89
2023/12/05 10:42:04;;;;;;;0.20;0.20;;;;;;;4.49;60.16;101762.97;4805615;29;20106;-85
2023/12/05 10:44:37;;;;;;;0.10;0.10;;;;;;;4.68;60.30;101756.84;4833252;29;20035;-87
2023/12/05 10:47:03;;;;;;;0.20;0.20;;;;;;;4.62;59.95;101749.19;4821925;29;20461;-91
2023/12/05 10:49:28;;;;;;;0.20;0.20;;;;;;;4.72;59.95;101750.00;4801821;29;20543;-86
2023/12/05 10:51:54;;;;;;;0.15;0.15;;;;;;;4.78;59.28;101749.97;4798119;29;20045;-87
2023/12/05 10:54:21;;;;;;;0.10;0.10;;;;;;;4.77;59.26;101755.94;4822006;29;20029;-91
2023/12/05 10:57:09;;;;;;;0.20;0.20;;;;;;;4.76;59.80;101749.97;4797827;29;20026;-86
2023/12/05 10:59:38;;;;;;;0.20;0.20;;;;;;;4.83;59.96;101754.19;4816686;29;20037;-87
2023/12/05 11:02:14;;;;;;;0.20;0.20;;;;;;;4.82;59.29;101752.50;4801950;29;20034;-87
2023/12/05 11:04:42;;;;;;;0.20;0.20;;;;;;;4.80;59.01;101754.19;4832291;29;20034;-86
2023/12/05 11:07:09;;;;;;;0.20;0.20;;;;;;;4.95;60.23;101748.13;4831371;29;20033;-86
2023/12/05 11:09:35;;;;;;;0.10;0.10;;;;;;;5.13;60.05;101726.59;4822309;29;20109;-87
2023/12/05 11:12:02;;;;;;;0.20;0.20;;;;;;;5.12;57.95;101732.59;4824185;29;20619;-83
2023/12/05 11:14:28;;;;;;;0.20;0.20;;;;;;;5.28;57.38;101748.69;4823256;29;20034;-83
2023/12/05 11:16:54;;;;;;;0.20;0.20;;;;;;;5.32;57.38;101761.50;4792697;29;20034;-88
2023/12/05 11:19:28;;;;;;;0.20;0.20;;;;;;;5.39;57.73;101759.72;4808012;29;20038;-86
2023/12/05 11:22:11;;;;;;;0.20;0.20;;;;;;;5.28;57.35;101741.84;4836360;29;20084;-85
2023/12/05 11:25:21;;;;;;;0.20;0.20;;;;;;;5.06;56.83;101750.59;4822864;29;20030;-90
2023/12/05 11:28:07;;;;;;;0.20;0.20;;;;;;;5.01;57.90;101740.38;4830682;29;20054;-85
2023/12/05 11:30:37;;;;;;;0.10;0.10;;;;;;;4.81;58.22;101734.53;4807211;29;20115;-84